Time;durP1;ratioP1;P1;durP2;ratioP2;P2;SDS_P1;SDS_P2;PMS_P1;PMS_P2;Temp;Humidity;BMP_temperature;BMP_pressure;BME280_temperature;BME280_humidity;BME280_pressure;Samples;Min_cycle;Max_cycle;Signal;HPM_P1;HPM_P2
2022/06/11 00:01:36;;;;;;;1.50;0.43;;;;;;;21.14;49.11;102070.63;16133775;19;129124;-55
2022/06/11 00:07:02;;;;;;;1.08;0.32;;;;;;;21.14;48.62;102069.75;16136485;19;130362;-55
2022/06/11 00:12:26;;;;;;;1.90;0.55;;;;;;;21.13;48.63;102071.69;16133915;19;130943;-55
2022/06/11 00:17:48;;;;;;;1.42;0.50;;;;;;;21.12;48.83;102072.78;16128390;19;129302;-55
2022/06/11 00:23:11;;;;;;;1.08;0.40;;;;;;;21.10;48.98;102077.72;16131963;19;129226;-55
2022/06/11 00:28:33;;;;;;;0.98;0.35;;;;;;;21.08;48.59;102068.75;16149281;19;129802;-56
2022/06/11 00:33:55;;;;;;;0.70;0.25;;;;;;;21.07;48.69;102075.41;16147908;19;129234;-55
2022/06/11 00:39:21;;;;;;;1.23;0.30;;;;;;;21.06;48.73;102063.44;16147975;19;129766;-55
2022/06/11 00:44:43;;;;;;;0.77;0.30;;;;;;;21.05;48.95;102064.53;16149167;19;129927;-55
2022/06/11 00:50:19;;;;;;;3.17;0.43;;;;;;;21.06;48.59;102063.44;16145898;19;129405;-56
2022/06/11 00:55:43;;;;;;;0.43;0.17;;;;;;;21.02;48.97;102056.63;16143856;19;129780;-54
2022/06/11 01:01:06;;;;;;;1.05;0.30;;;;;;;21.02;48.77;102061.38;16144769;19;128987;-54
2022/06/11 01:06:51;;;;;;;0.47;0.30;;;;;;;21.01;48.77;102049.38;16146447;19;130094;-55
2022/06/11 01:12:30;;;;;;;0.40;0.30;;;;;;;21.01;48.78;102054.09;16145448;19;129839;-55
2022/06/11 01:17:54;;;;;;;3.03;0.40;;;;;;;20.99;48.53;102047.91;16141637;19;128980;-55
2022/06/11 01:23:59;;;;;;;0.85;0.28;;;;;;;20.98;48.66;102044.31;16145768;19;129296;-54
2022/06/11 01:29:59;;;;;;;0.75;0.20;;;;;;;20.98;48.84;102047.09;16144988;19;131698;-54
2022/06/11 01:35:39;;;;;;;0.93;0.30;;;;;;;20.96;48.65;102042.81;16143015;19;129708;-56
2022/06/11 01:41:22;;;;;;;0.88;0.20;;;;;;;20.96;48.58;102045.59;16145800;19;130347;-56
2022/06/11 01:46:47;;;;;;;0.52;0.22;;;;;;;20.92;48.40;102039.66;16142995;19;129313;-55
2022/06/11 01:52:36;;;;;;;4.15;0.40;;;;;;;20.93;48.77;102046.06;16142362;19;129413;-56
2022/06/11 01:58:25;;;;;;;2.28;0.75;;;;;;;20.92;48.56;102049.97;16141331;19;130305;-55
2022/06/11 02:04:17;;;;;;;0.73;0.20;;;;;;;20.92;48.55;102042.44;16137324;19;129237;-55
2022/06/11 02:09:42;;;;;;;0.52;0.30;;;;;;;20.90;48.55;102041.81;16141919;19;130304;-54
2022/06/11 02:15:32;;;;;;;0.67;0.40;;;;;;;20.90;48.68;102039.03;16142509;19;129417;-55
2022/06/11 02:21:02;;;;;;;0.73;0.10;;;;;;;20.88;48.76;102047.63;16141175;19;129631;-54
2022/06/11 02:26:29;;;;;;;0.10;0.10;;;;;;;20.87;48.83;102048.72;16141695;19;129400;-55
2022/06/11 02:31:56;;;;;;;0.63;0.22;;;;;;;20.88;48.82;102055.97;16142775;19;130293;-55
2022/06/11 02:37:23;;;;;;;0.73;0.30;;;;;;;20.87;48.45;102048.72;16137196;19;129415;-55
2022/06/11 02:42:46;;;;;;;0.28;0.20;;;;;;;20.86;48.29;102054.53;16142935;19;129735;-55
2022/06/11 02:48:08;;;;;;;0.15;0.10;;;;;;;20.84;48.35;102057.53;16137073;19;129262;-55
2022/06/11 02:53:30;;;;;;;0.63;0.20;;;;;;;20.85;48.24;102059.22;16134437;19;128995;-55
2022/06/11 02:58:52;;;;;;;0.70;0.30;;;;;;;20.84;48.71;102065.03;16133270;19;130057;-55
2022/06/11 03:04:14;;;;;;;0.57;0.20;;;;;;;20.84;48.71;102059.47;16138183;19;129746;-56
2022/06/11 03:09:37;;;;;;;0.90;0.20;;;;;;;20.84;48.58;102065.88;16138077;19;129064;-54
2022/06/11 03:14:58;;;;;;;1.90;0.20;;;;;;;20.84;48.47;102074.22;16136889;19;129718;-55
2022/06/11 03:20:24;;;;;;;1.75;0.30;;;;;;;20.83;48.23;102080.03;16137714;19;129585;-55
2022/06/11 03:25:47;;;;;;;0.22;0.20;;;;;;;20.83;48.46;102080.03;16137192;19;130812;-55
2022/06/11 03:31:09;;;;;;;2.55;0.25;;;;;;;20.82;48.50;102081.94;16136551;19;129387;-56
2022/06/11 03:36:31;;;;;;;1.65;0.30;;;;;;;20.82;48.37;102092.22;16134673;19;129809;-55
2022/06/11 03:41:54;;;;;;;0.95;0.38;;;;;;;20.81;48.41;102091.34;16135721;19;129554;-55
2022/06/11 03:47:16;;;;;;;0.35;0.15;;;;;;;20.81;48.26;102098.88;16136657;19;128903;-54
2022/06/11 03:52:38;;;;;;;2.63;0.30;;;;;;;20.81;48.21;102101.66;16131409;19;129358;-55
2022/06/11 03:58:00;;;;;;;0.90;0.20;;;;;;;20.79;48.63;102110.25;16132018;19;129067;-55
2022/06/11 04:03:24;;;;;;;0.40;0.20;;;;;;;20.80;48.12;102111.91;16145395;19;129892;-54
2022/06/11 04:08:46;;;;;;;0.38;0.25;;;;;;;20.79;48.28;102113.03;16148103;19;130106;-54
2022/06/11 04:14:08;;;;;;;0.40;0.20;;;;;;;20.79;48.36;102124.13;16150742;19;132061;-55
2022/06/11 04:19:35;;;;;;;1.95;0.30;;;;;;;20.78;48.30;102125.22;16149926;19;129090;-54
2022/06/11 04:24:57;;;;;;;0.73;0.25;;;;;;;20.78;48.47;102136.34;16149896;19;129467;-55
2022/06/11 04:30:21;;;;;;;0.77;0.30;;;;;;;20.78;48.11;102132.69;16148774;19;130016;-55
2022/06/11 04:35:43;;;;;;;0.93;0.17;;;;;;;20.77;48.34;102145.75;16147919;19;128867;-54
2022/06/11 04:41:07;;;;;;;0.95;0.30;;;;;;;20.77;48.50;102142.97;16147986;19;130455;-55
2022/06/11 04:46:28;;;;;;;1.08;0.20;;;;;;;20.76;48.10;102146.84;16145623;19;129855;-53
2022/06/11 04:51:50;;;;;;;0.20;0.10;;;;;;;20.76;48.20;102152.41;16143868;19;130173;-54
2022/06/11 04:57:13;;;;;;;0.60;0.20;;;;;;;20.77;48.25;102153.25;16143887;19;129196;-54
2022/06/11 05:02:35;;;;;;;0.50;0.15;;;;;;;20.75;47.97;102153.47;16145114;19;129919;-55
2022/06/11 05:07:58;;;;;;;0.70;0.30;;;;;;;20.75;48.42;102156.25;16146983;19;129412;-56
2022/06/11 05:13:20;;;;;;;1.80;0.28;;;;;;;20.73;48.21;102153.69;16143933;19;129911;-55
2022/06/11 05:18:42;;;;;;;0.28;0.20;;;;;;;20.73;48.16;102164.81;16140505;19;129096;-54
2022/06/11 05:24:05;;;;;;;1.05;0.45;;;;;;;20.73;48.30;102169.50;16143959;19;129593;-54
2022/06/11 05:29:48;;;;;;;0.82;0.20;;;;;;;20.74;48.08;102168.44;16142789;19;129657;-55
2022/06/11 05:35:17;;;;;;;3.25;0.38;;;;;;;20.73;48.05;102169.50;16143975;19;129354;-55
2022/06/11 05:40:44;;;;;;;1.45;0.40;;;;;;;20.72;47.97;102173.38;16143820;19;129873;-55
2022/06/11 05:46:12;;;;;;;1.40;0.30;;;;;;;20.72;47.84;102170.59;16143862;19;128920;-54
2022/06/11 05:51:38;;;;;;;1.27;0.30;;;;;;;20.71;47.83;102168.88;16142542;19;131193;-54
2022/06/11 05:57:04;;;;;;;1.13;0.30;;;;;;;20.71;47.77;102163.31;16142417;19;129440;-55
2022/06/11 06:02:27;;;;;;;2.65;0.28;;;;;;;20.70;47.80;102165.28;16140659;19;128945;-55
2022/06/11 06:07:49;;;;;;;0.93;0.28;;;;;;;20.71;47.83;102174.44;16144225;19;129679;-54
2022/06/11 06:13:56;;;;;;;1.65;0.57;;;;;;;20.69;47.68;102173.81;16142947;19;133691;-55
2022/06/11 06:18:55;;;;;;;0.47;0.30;;;;;;;20.71;48.13;102191.13;16136952;19;129179;-55
2022/06/11 06:24:17;;;;;;;1.60;0.40;;;;;;;20.69;47.78;102191.38;16141987;19;130232;-55
2022/06/11 06:29:39;;;;;;;1.17;0.45;;;;;;;20.70;47.98;102178.31;16142562;19;129491;-54
2022/06/11 06:35:01;;;;;;;0.25;0.20;;;;;;;20.69;47.61;102184.94;16141437;19;128886;-51
2022/06/11 06:40:23;;;;;;;1.77;0.45;;;;;;;20.67;47.67;102190.75;16141026;19;128892;-53
2022/06/11 06:45:45;;;;;;;1.23;0.40;;;;;;;20.68;47.92;102188.81;16141915;19;129390;-55
2022/06/11 06:51:07;;;;;;;1.00;0.38;;;;;;;20.68;47.69;102191.59;16137901;19;130775;-54
2022/06/11 06:56:33;;;;;;;1.92;0.40;;;;;;;20.68;47.76;102208.28;16139217;19;129288;-55
2022/06/11 07:01:55;;;;;;;1.58;0.40;;;;;;;20.66;47.85;102208.50;16135275;19;129030;-55
2022/06/11 07:07:18;;;;;;;2.72;0.30;;;;;;;20.68;47.73;102222.19;16138776;19;130420;-54
2022/06/11 07:12:40;;;;;;;5.30;0.43;;;;;;;20.70;47.75;102215.31;16137938;19;129538;-54
2022/06/11 07:18:08;;;;;;;5.70;0.85;;;;;;;20.74;47.54;102222.13;16134637;19;129752;-53
2022/06/11 07:23:35;;;;;;;1.63;0.50;;;;;;;20.75;47.45;102218.28;16133414;19;129838;-55
2022/06/11 07:29:09;;;;;;;3.20;0.60;;;;;;;20.79;47.25;102218.69;16132958;19;130613;-52
2022/06/11 07:34:31;;;;;;;3.35;0.80;;;;;;;20.81;47.13;102213.72;16140492;19;132304;-50
2022/06/11 07:39:53;;;;;;;4.78;0.68;;;;;;;20.84;47.29;102218.84;16149081;19;129850;-53
2022/06/11 07:45:15;;;;;;;5.05;0.65;;;;;;;20.88;46.98;102220.09;16154037;19;129504;-54
2022/06/11 07:50:43;;;;;;;4.32;1.15;;;;;;;20.90;47.14;102217.06;16152546;19;129506;-54
2022/06/11 07:56:09;;;;;;;2.47;0.80;;;;;;;20.94;47.15;102215.53;16153088;19;130007;-53
2022/06/11 08:01:31;;;;;;;2.33;0.50;;;;;;;21.01;47.08;102221.03;16145211;19;130437;-54
2022/06/11 08:06:53;;;;;;;2.83;0.65;;;;;;;21.06;47.09;102223.94;16147976;19;130201;-51
2022/06/11 08:12:14;;;;;;;2.35;0.70;;;;;;;21.09;46.88;102223.50;16150043;19;129170;-54
2022/06/11 08:17:36;;;;;;;2.40;0.63;;;;;;;21.15;46.88;102235.63;16145330;19;129248;-54
2022/06/11 08:22:59;;;;;;;4.32;0.90;;;;;;;21.19;46.99;102234.09;16146076;19;130498;-54
2022/06/11 08:28:22;;;;;;;4.35;0.77;;;;;;;21.20;46.64;102244.16;16152874;19;129374;-54
2022/06/11 08:33:43;;;;;;;4.88;0.90;;;;;;;21.24;46.80;102247.31;16149973;19;129402;-52
2022/06/11 08:39:12;;;;;;;3.15;0.82;;;;;;;21.28;46.66;102243.81;16143443;19;130751;-53
2022/06/11 08:44:37;;;;;;;4.97;1.02;;;;;;;21.33;46.17;102245.91;16148459;19;129519;-53
2022/06/11 08:50:03;;;;;;;3.50;0.90;;;;;;;21.39;45.99;102250.56;16148138;19;129503;-54
2022/06/11 08:55:33;;;;;;;2.88;1.10;;;;;;;21.44;46.10;102239.56;16144321;19;130139;-53
2022/06/11 09:01:04;;;;;;;2.35;0.70;;;;;;;21.47;45.93;102236.31;16147501;19;129528;-52
2022/06/11 09:06:49;;;;;;;5.55;0.80;;;;;;;21.51;45.71;102231.16;16147373;19;129781;-54
2022/06/11 09:12:31;;;;;;;4.82;1.48;;;;;;;21.52;45.87;102233.72;16146962;19;128937;-54
2022/06/11 09:18:21;;;;;;;5.22;1.20;;;;;;;21.54;45.61;102229.84;16143420;19;129933;-54
2022/06/11 09:23:52;;;;;;;4.30;1.10;;;;;;;21.58;45.43;102231.06;16140857;19;128881;-53
2022/06/11 09:29:19;;;;;;;5.65;1.23;;;;;;;21.58;45.31;102220.78;16144024;19;130521;-54
2022/06/11 09:34:52;;;;;;;7.47;1.67;;;;;;;21.60;45.07;102234.47;16139629;19;128890;-54
2022/06/11 09:40:35;;;;;;;6.03;1.17;;;;;;;21.59;45.09;102227.19;16136534;19;130647;-53
2022/06/11 09:46:04;;;;;;;12.25;1.33;;;;;;;21.59;45.03;102232.75;16143801;19;129633;-54
2022/06/11 09:51:26;;;;;;;16.17;2.00;;;;;;;21.60;45.21;102234.47;16143209;19;129597;-53
2022/06/11 09:57:17;;;;;;;12.25;1.90;;;;;;;21.64;45.20;102236.53;16137649;19;129388;-53
2022/06/11 10:02:59;;;;;;;13.07;1.73;;;;;;;21.65;45.01;102229.88;16138342;19;129652;-52
2022/06/11 10:08:32;;;;;;;14.68;2.15;;;;;;;21.67;44.96;102238.88;16142582;19;130170;-51
2022/06/11 10:19:58;;;;;;;8.73;1.40;;;;;;;21.67;45.23;102229.66;16137372;19;130343;-54
2022/06/11 10:25:32;;;;;;;13.25;1.92;;;;;;;21.67;44.92;102224.94;16140182;19;130724;-53
2022/06/11 10:31:26;;;;;;;13.98;1.63;;;;;;;21.68;44.88;102234.13;16141041;19;129369;-51
2022/06/11 10:36:54;;;;;;;9.05;2.00;;;;;;;21.67;45.20;102236.09;16134493;19;129127;-52
2022/06/11 10:42:18;;;;;;;5.05;1.05;;;;;;;21.70;45.03;102233.91;16137372;19;129595;-53
2022/06/11 10:47:53;;;;;;;7.07;1.20;;;;;;;21.71;45.17;102235.63;16138617;19;129188;-54
2022/06/11 10:53:35;;;;;;;9.70;1.50;;;;;;;21.71;44.93;102219.75;16133283;19;130922;-53
2022/06/11 10:59:03;;;;;;;9.23;1.98;;;;;;;21.70;44.69;102218.03;16133970;19;129721;-52
2022/06/11 11:04:37;;;;;;;8.48;1.38;;;;;;;21.69;45.12;102221.91;16134055;19;129310;-52
2022/06/11 11:10:05;;;;;;;4.88;1.25;;;;;;;21.70;44.68;102217.22;16137025;19;129115;-54
2022/06/11 11:15:40;;;;;;;7.18;1.25;;;;;;;21.70;44.83;102218.03;16133475;19;130049;-53
2022/06/11 11:21:02;;;;;;;5.25;1.40;;;;;;;21.68;44.87;102223.00;16130193;19;132464;-51
2022/06/11 11:26:41;;;;;;;4.28;1.05;;;;;;;21.70;44.87;102222.78;16136563;19;129673;-53
2022/06/11 11:32:23;;;;;;;4.78;1.02;;;;;;;21.66;44.74;102212.09;16137175;19;129845;-52
2022/06/11 11:37:55;;;;;;;6.85;1.58;;;;;;;21.66;44.77;102214.03;16134159;19;128916;-53
2022/06/11 11:43:17;;;;;;;7.30;1.30;;;;;;;21.65;44.86;102213.19;16136579;19;129702;-52
2022/06/11 11:48:47;;;;;;;5.60;1.02;;;;;;;21.66;44.78;102205.69;16137600;19;129328;-51
2022/06/11 11:54:18;;;;;;;6.13;1.30;;;;;;;21.67;44.89;102201.78;16132342;19;129593;-54
2022/06/11 11:59:56;;;;;;;4.25;1.30;;;;;;;21.65;44.73;102204.00;16132517;19;129687;-53
2022/06/11 12:05:25;;;;;;;6.13;1.00;;;;;;;21.66;44.64;102200.13;16128913;19;129304;-54
2022/06/11 12:10:50;;;;;;;3.95;1.05;;;;;;;21.64;44.78;102199.50;16135969;19;129843;-53
2022/06/11 12:16:26;;;;;;;7.75;1.13;;;;;;;21.64;44.79;102196.72;16131476;19;129514;-55
2022/06/11 12:21:53;;;;;;;6.07;1.13;;;;;;;21.63;44.99;102193.06;16140580;19;130396;-52
2022/06/11 12:27:33;;;;;;;6.38;1.17;;;;;;;21.65;45.35;102192.84;16151069;19;129524;-51
2022/06/11 12:32:57;;;;;;;5.45;1.63;;;;;;;21.66;45.21;102197.34;16142812;19;130164;-55
2022/06/11 12:38:24;;;;;;;8.23;1.50;;;;;;;21.69;45.40;102188.50;16144406;19;129881;-56
2022/06/11 12:43:58;;;;;;;7.97;1.50;;;;;;;21.73;45.35;102186.94;16147134;19;129175;-56
2022/06/11 12:49:44;;;;;;;6.00;1.23;;;;;;;21.78;45.19;102191.78;16146533;19;129623;-56
2022/06/11 12:56:04;;;;;;;6.20;0.93;;;;;;;21.81;45.16;102192.16;16147413;19;132686;-53
2022/06/11 13:01:35;;;;;;;4.40;1.05;;;;;;;21.83;45.41;102190.00;16136839;19;128916;-54
2022/06/11 13:07:03;;;;;;;3.50;0.93;;;;;;;21.85;45.24;102188.91;16145211;19;129461;-55
2022/06/11 13:12:53;;;;;;;8.30;1.25;;;;;;;21.87;44.88;102190.34;16143099;19;130311;-53
2022/06/11 13:18:17;;;;;;;6.78;1.10;;;;;;;21.88;45.15;102191.22;16141670;19;129302;-53
2022/06/11 13:24:21;;;;;;;9.40;1.47;;;;;;;21.94;44.80;102182.78;16145971;19;129377;-55
2022/06/11 13:29:52;;;;;;;8.00;1.35;;;;;;;21.92;44.94;102184.06;16136614;19;130811;-55
2022/06/11 13:35:25;;;;;;;7.30;1.52;;;;;;;21.91;44.67;102180.44;16132919;19;130219;-55
2022/06/11 13:41:10;;;;;;;6.43;1.05;;;;;;;21.90;45.02;102180.69;16130427;19;129537;-56
2022/06/11 13:47:02;;;;;;;6.22;1.13;;;;;;;21.91;44.96;102185.19;16136209;19;129113;-56
2022/06/11 13:58:55;;;;;;;20.27;1.70;;;;;;;21.97;45.21;102171.13;16135744;19;129715;-54
2022/06/11 14:04:43;;;;;;;5.82;0.98;;;;;;;21.99;44.63;102168.13;16129021;19;129205;-55
2022/06/11 14:10:24;;;;;;;5.65;0.88;;;;;;;21.98;45.20;102169.19;16144251;19;129764;-56
2022/06/11 14:15:51;;;;;;;8.13;1.30;;;;;;;21.98;45.38;102158.06;16160298;19;132749;-57
2022/06/11 14:21:39;;;;;;;10.93;1.38;;;;;;;22.02;45.18;102164.84;16199700;19;128870;-54
2022/06/11 14:27:01;;;;;;;6.85;1.38;;;;;;;22.06;45.23;102154.06;16205723;19;130563;-54
2022/06/11 14:32:27;;;;;;;13.40;1.10;;;;;;;22.07;45.41;102145.47;16178269;19;128567;-52
2022/06/11 14:37:51;;;;;;;10.48;1.50;;;;;;;22.09;45.13;102140.50;16177459;19;129867;-55
2022/06/11 14:43:16;;;;;;;8.40;1.00;;;;;;;22.09;45.16;102148.88;16170851;19;129224;-48
2022/06/11 14:48:43;;;;;;;2.35;0.70;;;;;;;22.12;45.11;102148.38;16191373;19;128945;-52
2022/06/11 14:54:30;;;;;;;6.82;1.02;;;;;;;22.11;44.91;102146.69;16168576;19;128998;-53
2022/06/11 15:00:13;;;;;;;2.42;0.60;;;;;;;22.09;45.06;102137.72;16168237;19;130095;-49
2022/06/11 15:06:22;;;;;;;6.30;0.65;;;;;;;22.15;45.04;102140.63;16178488;19;128888;-53
2022/06/11 15:11:59;;;;;;;10.20;1.20;;;;;;;22.15;44.79;102140.63;16144819;19;129218;-54
2022/06/11 15:17:30;;;;;;;4.82;1.02;;;;;;;22.14;44.88;102139.78;16134650;19;129478;-54
2022/06/11 15:22:53;;;;;;;5.65;0.80;;;;;;;22.12;44.78;102139.16;16137114;19;129738;-54
2022/06/11 15:28:16;;;;;;;3.65;0.70;;;;;;;22.12;45.31;102134.44;16135979;19;129302;-53
2022/06/11 15:33:38;;;;;;;4.97;1.20;;;;;;;22.10;45.08;102122.69;16134598;19;129909;-54
2022/06/11 15:39:04;;;;;;;7.53;1.10;;;;;;;22.10;45.00;102128.25;16131231;19;129487;-54
2022/06/11 15:44:36;;;;;;;4.38;0.70;;;;;;;22.09;44.96;102131.31;16134520;19;129568;-54
2022/06/11 15:50:00;;;;;;;3.60;0.88;;;;;;;22.07;45.03;102128.75;16129746;19;129484;-54
2022/06/11 15:55:24;;;;;;;5.30;1.00;;;;;;;22.07;44.64;102134.31;16138677;19;129277;-54
2022/06/11 16:00:57;;;;;;;4.90;0.88;;;;;;;22.07;44.96;102123.16;16146265;19;129318;-54
2022/06/11 16:06:26;;;;;;;4.18;0.98;;;;;;;22.07;45.03;102123.16;16149930;19;129549;-54
2022/06/11 16:11:54;;;;;;;3.30;0.82;;;;;;;22.08;45.16;102126.81;16149038;19;129749;-53
2022/06/11 16:17:22;;;;;;;2.72;0.60;;;;;;;22.08;44.92;102124.88;16146557;19;129423;-54
2022/06/11 16:22:46;;;;;;;5.88;0.85;;;;;;;22.05;44.53;102128.13;16148033;19;132404;-54
2022/06/11 16:28:20;;;;;;;8.10;0.88;;;;;;;22.09;44.79;102125.72;16144823;19;128849;-53
2022/06/11 16:33:47;;;;;;;2.22;0.70;;;;;;;22.09;44.93;102129.34;16148218;19;130486;-57
2022/06/11 16:39:28;;;;;;;5.47;0.82;;;;;;;22.10;44.62;102127.41;16145486;19;129501;-54
2022/06/11 16:44:52;;;;;;;4.97;1.13;;;;;;;22.09;44.70;102134.94;16147812;19;130617;-54
2022/06/11 16:56:14;;;;;;;5.18;1.08;;;;;;;22.09;44.88;102129.34;16146958;19;129017;-54
2022/06/11 17:01:43;;;;;;;3.35;0.80;;;;;;;22.10;44.65;102139.41;16142582;19;130882;-54
2022/06/11 17:07:24;;;;;;;3.85;0.73;;;;;;;22.13;44.84;102133.38;16139074;19;129027;-54
2022/06/11 17:12:46;;;;;;;5.80;1.00;;;;;;;22.13;45.05;102135.28;16145827;19;129596;-51
2022/06/11 17:18:20;;;;;;;3.58;0.80;;;;;;;22.16;44.94;102133.94;16144358;19;129072;-54
2022/06/11 17:23:46;;;;;;;3.58;0.77;;;;;;;22.17;44.90;102139.31;16146063;19;129417;-54
2022/06/11 17:29:13;;;;;;;15.10;1.83;;;;;;;22.17;44.38;102144.00;16144162;19;129125;-54
2022/06/11 17:34:36;;;;;;;16.40;1.55;;;;;;;22.15;44.92;102147.06;16143244;19;129591;-55
2022/06/11 17:40:06;;;;;;;6.13;1.05;;;;;;;22.15;45.11;102140.63;16139019;19;129240;-54
2022/06/11 17:45:28;;;;;;;6.03;1.17;;;;;;;22.13;44.85;102143.66;16139539;19;129298;-52
2022/06/11 17:50:49;;;;;;;9.00;1.10;;;;;;;22.11;44.96;102140.25;16140007;19;129740;-54
2022/06/11 17:56:13;;;;;;;5.43;0.95;;;;;;;22.09;44.63;102142.44;16145488;19;129486;-53
2022/06/11 18:01:35;;;;;;;8.30;1.25;;;;;;;22.06;45.00;102138.19;16137267;19;129407;-55
2022/06/11 18:06:58;;;;;;;5.00;0.82;;;;;;;22.05;44.95;102141.22;16143255;19;130426;-53
2022/06/11 18:12:26;;;;;;;5.40;1.20;;;;;;;22.02;44.99;102148.13;16143862;19;129432;-53
2022/06/11 18:18:14;;;;;;;7.78;1.55;;;;;;;22.01;44.42;102154.78;16139439;19;129404;-54
2022/06/11 18:29:17;;;;;;;10.38;1.83;;;;;;;21.99;44.62;102154.19;16141349;19;129475;-54
2022/06/11 18:34:42;;;;;;;9.82;1.70;;;;;;;21.97;44.94;102151.63;16138478;19;129604;-55
2022/06/11 18:40:04;;;;;;;8.93;1.90;;;;;;;21.95;44.80;102153.81;16135157;19;130695;-52
2022/06/11 18:45:27;;;;;;;18.83;2.13;;;;;;;21.97;45.14;102156.34;16139311;19;128872;-54
2022/06/11 18:50:49;;;;;;;10.27;1.60;;;;;;;22.00;45.20;102167.03;16137795;19;129518;-53
2022/06/11 18:56:11;;;;;;;12.93;1.88;;;;;;;22.00;45.16;102167.03;16140143;19;128889;-52
2022/06/11 19:01:33;;;;;;;9.60;1.60;;;;;;;22.00;45.25;102161.47;16135587;19;129485;-55
2022/06/11 19:06:55;;;;;;;10.52;2.13;;;;;;;22.00;45.17;102164.25;16138403;19;129186;-53
2022/06/11 19:12:17;;;;;;;20.73;2.35;;;;;;;22.00;45.34;102171.72;16136147;19;129455;-53
2022/06/11 19:17:42;;;;;;;9.35;1.50;;;;;;;21.98;45.20;102174.78;16136179;19;129390;-54
2022/06/11 19:23:04;;;;;;;6.87;1.73;;;;;;;21.96;45.18;102176.94;16131073;19;129316;-55
2022/06/11 19:28:27;;;;;;;6.60;1.65;;;;;;;21.93;45.58;102186.63;16137183;19;129644;-54
2022/06/11 19:33:49;;;;;;;10.35;1.95;;;;;;;21.90;45.25;102177.91;16149305;19;130512;-54
2022/06/11 19:39:15;;;;;;;8.30;1.83;;;;;;;21.88;45.27;102180.09;16152841;19;130101;-55
2022/06/11 19:44:43;;;;;;;7.20;1.70;;;;;;;21.85;45.34;102186.13;16151052;19;129357;-55
2022/06/11 19:50:07;;;;;;;9.07;1.58;;;;;;;21.82;45.27;102182.72;16144847;19;129199;-54
2022/06/11 19:55:29;;;;;;;12.98;2.03;;;;;;;21.82;45.50;102184.66;16152767;19;130137;-53
2022/06/11 20:00:51;;;;;;;12.38;1.75;;;;;;;21.82;45.28;102193.03;16147266;19;130246;-53
2022/06/11 20:06:14;;;;;;;15.88;2.40;;;;;;;21.81;45.52;102203.31;16148784;19;130397;-53
2022/06/11 20:11:36;;;;;;;16.60;2.00;;;;;;;21.80;45.54;102207.19;16150364;19;129807;-54
2022/06/11 20:16:58;;;;;;;11.13;1.67;;;;;;;21.79;45.19;102204.63;16149450;19;130116;-54
2022/06/11 20:22:22;;;;;;;8.40;1.75;;;;;;;21.78;45.13;102214.94;16145178;19;128943;-53
2022/06/11 20:27:44;;;;;;;7.88;1.63;;;;;;;21.78;45.41;102219.66;16148017;19;130615;-54
2022/06/11 20:33:08;;;;;;;6.53;1.70;;;;;;;21.78;45.38;102225.22;16148663;19;129309;-52
2022/06/11 20:38:30;;;;;;;7.18;1.42;;;;;;;21.76;45.49;102219.03;16148666;19;129740;-54
2022/06/11 20:43:52;;;;;;;7.70;1.65;;;;;;;21.75;45.42;102220.97;16146977;19;129516;-53
2022/06/11 20:54:55;;;;;;;7.93;1.33;;;;;;;21.74;45.55;102230.41;16146153;19;129407;-52
2022/06/11 21:00:20;;;;;;;5.38;1.40;;;;;;;21.73;45.77;102222.28;16141314;19;129107;-54
2022/06/11 21:05:41;;;;;;;5.93;1.50;;;;;;;21.73;45.76;102217.56;16141990;19;132735;-54
2022/06/11 21:11:03;;;;;;;8.88;1.40;;;;;;;21.71;45.65;102219.75;16144604;19;129275;-54
2022/06/11 21:16:25;;;;;;;7.88;1.40;;;;;;;21.69;45.84;102219.13;16146018;19;129511;-54
2022/06/11 21:22:04;;;;;;;7.93;1.40;;;;;;;21.68;45.71;102220.22;16134507;19;129349;-55
2022/06/11 21:27:29;;;;;;;8.85;2.03;;;;;;;21.65;45.72;102218.75;16128580;19;129536;-54
2022/06/11 21:32:54;;;;;;;3.33;1.10;;;;;;;21.63;45.34;102200.59;16127238;19;129644;-55
2022/06/11 21:38:15;;;;;;;4.47;1.17;;;;;;;21.60;45.72;102199.09;16127944;19;129709;-54
2022/06/11 21:43:37;;;;;;;4.25;1.13;;;;;;;21.58;45.73;102208.78;16137385;19;129494;-55
2022/06/11 21:49:00;;;;;;;5.82;1.25;;;;;;;21.56;45.53;102216.53;16140916;19;129815;-55
2022/06/11 21:54:22;;;;;;;7.30;1.00;;;;;;;21.55;45.70;102221.25;16134365;19;129403;-55
2022/06/11 21:59:45;;;;;;;6.05;0.90;;;;;;;21.54;45.96;102215.94;16140181;19;129595;-52
2022/06/11 22:05:07;;;;;;;3.15;0.73;;;;;;;21.51;45.89;102218.09;16135831;19;129699;-55
2022/06/11 22:10:29;;;;;;;5.97;1.10;;;;;;;21.50;45.55;102229.44;16141910;19;130167;-55
2022/06/11 22:15:51;;;;;;;3.35;0.82;;;;;;;21.48;45.73;102234.38;16139709;19;130771;-55
2022/06/11 22:21:20;;;;;;;4.53;0.90;;;;;;;21.48;45.64;102238.00;16137352;19;128983;-55
2022/06/11 22:26:42;;;;;;;3.67;0.80;;;;;;;21.47;45.64;102247.44;16139451;19;129341;-55
2022/06/11 22:32:04;;;;;;;1.73;0.47;;;;;;;21.45;45.62;102246.81;16142287;19;129612;-55
2022/06/11 22:37:28;;;;;;;2.92;0.70;;;;;;;21.44;45.55;102247.91;16141276;19;132027;-55
2022/06/11 22:42:50;;;;;;;1.90;0.70;;;;;;;21.43;45.85;102250.94;16136883;19;129234;-55
2022/06/11 22:48:12;;;;;;;2.63;0.80;;;;;;;21.40;45.79;102246.69;16137878;19;130197;-55
2022/06/11 22:53:37;;;;;;;4.00;0.67;;;;;;;21.39;45.90;102247.78;16134829;19;132376;-56
2022/06/11 22:59:01;;;;;;;1.63;0.60;;;;;;;21.39;46.00;102249.69;16139519;19;129139;-55
2022/06/11 23:04:23;;;;;;;2.25;0.50;;;;;;;21.38;45.59;102257.22;16134186;19;131155;-54
2022/06/11 23:09:45;;;;;;;4.35;0.70;;;;;;;21.38;45.91;102254.44;16140582;19;129598;-55
2022/06/11 23:15:08;;;;;;;1.83;0.50;;;;;;;21.37;45.92;102258.28;16135509;19;128941;-55
2022/06/11 23:20:31;;;;;;;3.20;0.77;;;;;;;21.37;45.57;102247.16;16136787;19;131649;-55
2022/06/11 23:25:52;;;;;;;1.15;0.60;;;;;;;21.35;45.70;102250.16;16136920;19;129181;-55
2022/06/11 23:31:15;;;;;;;2.20;0.85;;;;;;;21.35;45.91;102250.16;16138927;19;129657;-50
2022/06/11 23:36:37;;;;;;;1.17;0.52;;;;;;;21.35;45.82;102254.88;16132760;19;128911;-56
2022/06/11 23:41:59;;;;;;;2.28;0.50;;;;;;;21.34;45.88;102253.19;16135930;19;129621;-53
2022/06/11 23:47:21;;;;;;;1.55;0.50;;;;;;;21.33;46.04;102248.69;16135830;19;131393;-55
2022/06/11 23:52:43;;;;;;;2.67;0.52;;;;;;;21.32;45.82;102258.13;16129324;19;128963;-55
2022/06/11 23:58:09;;;;;;;1.08;0.40;;;;;;;21.32;45.91;102255.34;16136491;19;128928;-53
